sensor_id;sensor_type;location;lat;lon;timestamp;P1;durP1;ratioP1;P2;durP2;ratioP2
68505;SDS011;55509;50.680;17.942;2022-08-24T00:00:27;61.20;;;36.70;;
68505;SDS011;55509;50.680;17.942;2022-08-24T00:03:38;51.20;;;32.50;;
68505;SDS011;55509;50.680;17.942;2022-08-24T00:06:40;65.40;;;35.50;;
68505;SDS011;55509;50.680;17.942;2022-08-24T00:09:42;65.80;;;35.30;;
68505;SDS011;55509;50.680;17.942;2022-08-24T00:12:44;58.80;;;33.00;;
68505;SDS011;55509;50.680;17.942;2022-08-24T00:15:45;55.50;;;31.10;;
68505;SDS011;55509;50.680;17.942;2022-08-24T00:18:47;55.90;;;31.80;;
68505;SDS011;55509;50.680;17.942;2022-08-24T00:21:48;57.80;;;33.30;;
68505;SDS011;55509;50.680;17.942;2022-08-24T00:24:51;60.60;;;33.40;;
68505;SDS011;55509;50.680;17.942;2022-08-24T00:27:53;60.30;;;32.90;;
68505;SDS011;55509;50.680;17.942;2022-08-24T00:30:54;68.60;;;37.00;;
68505;SDS011;55509;50.680;17.942;2022-08-24T00:33:56;51.50;;;31.40;;
68505;SDS011;55509;50.680;17.942;2022-08-24T00:36:58;48.20;;;29.30;;
68505;SDS011;55509;50.680;17.942;2022-08-24T00:40:00;50.10;;;29.10;;
68505;SDS011;55509;50.680;17.942;2022-08-24T00:43:05;47.60;;;28.50;;
68505;SDS011;55509;50.680;17.942;2022-08-24T00:46:17;54.40;;;32.80;;
68505;SDS011;55509;50.680;17.942;2022-08-24T00:49:35;50.00;;;31.60;;
68505;SDS011;55509;50.680;17.942;2022-08-24T00:52:42;62.60;;;33.30;;
68505;SDS011;55509;50.680;17.942;2022-08-24T00:55:50;60.30;;;33.50;;
68505;SDS011;55509;50.680;17.942;2022-08-24T00:58:56;62.80;;;35.20;;
68505;SDS011;55509;50.680;17.942;2022-08-24T01:02:06;54.60;;;34.30;;
68505;SDS011;55509;50.680;17.942;2022-08-24T01:05:12;56.20;;;35.30;;
68505;SDS011;55509;50.680;17.942;2022-08-24T01:08:14;58.80;;;33.70;;
68505;SDS011;55509;50.680;17.942;2022-08-24T01:11:18;64.40;;;35.90;;
68505;SDS011;55509;50.680;17.942;2022-08-24T01:14:23;81.90;;;45.80;;
68505;SDS011;55509;50.680;17.942;2022-08-24T01:17:25;85.60;;;46.60;;
68505;SDS011;55509;50.680;17.942;2022-08-24T01:20:58;74.00;;;40.60;;
68505;SDS011;55509;50.680;17.942;2022-08-24T01:24:09;69.00;;;40.80;;
68505;SDS011;55509;50.680;17.942;2022-08-24T01:27:13;65.60;;;38.90;;
68505;SDS011;55509;50.680;17.942;2022-08-24T01:30:16;44.20;;;29.70;;
68505;SDS011;55509;50.680;17.942;2022-08-24T01:33:22;42.30;;;28.60;;
68505;SDS011;55509;50.680;17.942;2022-08-24T01:39:34;45.90;;;28.00;;
68505;SDS011;55509;50.680;17.942;2022-08-24T01:42:50;40.40;;;28.00;;
68505;SDS011;55509;50.680;17.942;2022-08-24T01:45:53;43.00;;;28.70;;
68505;SDS011;55509;50.680;17.942;2022-08-24T01:48:55;40.40;;;28.60;;
68505;SDS011;55509;50.680;17.942;2022-08-24T01:52:00;44.20;;;27.60;;
68505;SDS011;55509;50.680;17.942;2022-08-24T01:55:05;54.40;;;27.90;;
68505;SDS011;55509;50.680;17.942;2022-08-24T01:58:10;45.00;;;28.90;;
68505;SDS011;55509;50.680;17.942;2022-08-24T02:01:12;41.60;;;26.60;;
68505;SDS011;55509;50.680;17.942;2022-08-24T02:04:17;43.80;;;27.40;;
68505;SDS011;55509;50.680;17.942;2022-08-24T02:07:19;42.90;;;27.10;;
68505;SDS011;55509;50.680;17.942;2022-08-24T02:10:21;45.20;;;28.70;;
68505;SDS011;55509;50.680;17.942;2022-08-24T02:13:23;43.80;;;28.90;;
68505;SDS011;55509;50.680;17.942;2022-08-24T02:16:25;47.60;;;30.70;;
68505;SDS011;55509;50.680;17.942;2022-08-24T02:19:28;48.30;;;29.20;;
68505;SDS011;55509;50.680;17.942;2022-08-24T02:22:29;46.20;;;28.50;;
68505;SDS011;55509;50.680;17.942;2022-08-24T02:25:31;46.00;;;28.50;;
68505;SDS011;55509;50.680;17.942;2022-08-24T02:28:33;53.70;;;28.50;;
68505;SDS011;55509;50.680;17.942;2022-08-24T02:31:36;42.30;;;27.90;;
68505;SDS011;55509;50.680;17.942;2022-08-24T02:34:37;42.90;;;27.20;;
68505;SDS011;55509;50.680;17.942;2022-08-24T02:37:39;45.60;;;29.00;;
68505;SDS011;55509;50.680;17.942;2022-08-24T02:40:41;46.50;;;29.80;;
68505;SDS011;55509;50.680;17.942;2022-08-24T02:43:43;42.90;;;27.50;;
68505;SDS011;55509;50.680;17.942;2022-08-24T02:46:45;45.40;;;28.00;;
68505;SDS011;55509;50.680;17.942;2022-08-24T02:49:46;49.50;;;29.60;;
68505;SDS011;55509;50.680;17.942;2022-08-24T02:52:48;46.10;;;28.80;;
68505;SDS011;55509;50.680;17.942;2022-08-24T02:55:51;41.00;;;27.10;;
68505;SDS011;55509;50.680;17.942;2022-08-24T02:58:52;44.60;;;28.50;;
68505;SDS011;55509;50.680;17.942;2022-08-24T03:01:54;43.80;;;28.00;;
68505;SDS011;55509;50.680;17.942;2022-08-24T03:04:56;41.50;;;26.50;;
68505;SDS011;55509;50.680;17.942;2022-08-24T03:07:57;46.20;;;29.40;;
68505;SDS011;55509;50.680;17.942;2022-08-24T03:10:59;45.80;;;29.50;;
68505;SDS011;55509;50.680;17.942;2022-08-24T03:14:01;43.50;;;28.40;;
68505;SDS011;55509;50.680;17.942;2022-08-24T03:17:03;40.30;;;27.20;;
68505;SDS011;55509;50.680;17.942;2022-08-24T03:20:06;40.90;;;28.10;;
68505;SDS011;55509;50.680;17.942;2022-08-24T03:23:11;49.50;;;27.60;;
68505;SDS011;55509;50.680;17.942;2022-08-24T03:26:12;39.80;;;26.50;;
68505;SDS011;55509;50.680;17.942;2022-08-24T03:29:14;35.30;;;25.50;;
68505;SDS011;55509;50.680;17.942;2022-08-24T03:32:16;41.80;;;26.90;;
68505;SDS011;55509;50.680;17.942;2022-08-24T03:35:18;47.40;;;28.50;;
68505;SDS011;55509;50.680;17.942;2022-08-24T03:38:22;40.70;;;27.30;;
68505;SDS011;55509;50.680;17.942;2022-08-24T03:41:23;43.70;;;27.20;;
68505;SDS011;55509;50.680;17.942;2022-08-24T03:44:25;45.80;;;27.40;;
68505;SDS011;55509;50.680;17.942;2022-08-24T03:47:27;43.90;;;28.00;;
68505;SDS011;55509;50.680;17.942;2022-08-24T03:50:28;43.00;;;28.00;;
68505;SDS011;55509;50.680;17.942;2022-08-24T03:53:30;46.90;;;29.30;;
68505;SDS011;55509;50.680;17.942;2022-08-24T03:56:31;43.90;;;28.40;;
68505;SDS011;55509;50.680;17.942;2022-08-24T03:59:33;55.60;;;31.80;;
68505;SDS011;55509;50.680;17.942;2022-08-24T04:02:35;65.30;;;32.20;;
68505;SDS011;55509;50.680;17.942;2022-08-24T04:05:37;45.60;;;29.10;;
68505;SDS011;55509;50.680;17.942;2022-08-24T04:08:39;42.30;;;28.20;;
68505;SDS011;55509;50.680;17.942;2022-08-24T04:11:41;38.80;;;26.00;;
68505;SDS011;55509;50.680;17.942;2022-08-24T04:14:45;35.50;;;24.00;;
68505;SDS011;55509;50.680;17.942;2022-08-24T04:17:47;35.60;;;24.40;;
68505;SDS011;55509;50.680;17.942;2022-08-24T04:20:48;41.80;;;25.50;;
68505;SDS011;55509;50.680;17.942;2022-08-24T04:23:50;34.00;;;23.40;;
68505;SDS011;55509;50.680;17.942;2022-08-24T04:26:53;43.30;;;25.10;;
68505;SDS011;55509;50.680;17.942;2022-08-24T04:29:54;46.30;;;28.10;;
68505;SDS011;55509;50.680;17.942;2022-08-24T04:32:56;44.90;;;26.20;;
68505;SDS011;55509;50.680;17.942;2022-08-24T04:35:57;35.10;;;24.10;;
68505;SDS011;55509;50.680;17.942;2022-08-24T04:38:59;33.70;;;23.70;;
68505;SDS011;55509;50.680;17.942;2022-08-24T04:42:02;37.90;;;25.50;;
68505;SDS011;55509;50.680;17.942;2022-08-24T04:45:05;36.40;;;25.00;;
68505;SDS011;55509;50.680;17.942;2022-08-24T04:48:08;41.50;;;27.00;;
68505;SDS011;55509;50.680;17.942;2022-08-24T04:51:11;38.70;;;25.80;;
68505;SDS011;55509;50.680;17.942;2022-08-24T04:54:14;34.10;;;25.70;;
68505;SDS011;55509;50.680;17.942;2022-08-24T04:57:16;35.40;;;25.00;;
68505;SDS011;55509;50.680;17.942;2022-08-24T05:00:18;38.60;;;25.90;;
68505;SDS011;55509;50.680;17.942;2022-08-24T05:03:20;39.90;;;26.80;;
68505;SDS011;55509;50.680;17.942;2022-08-24T05:06:23;49.30;;;32.30;;
68505;SDS011;55509;50.680;17.942;2022-08-24T05:09:26;63.90;;;38.80;;
68505;SDS011;55509;50.680;17.942;2022-08-24T05:12:28;59.10;;;36.30;;
68505;SDS011;55509;50.680;17.942;2022-08-24T05:15:30;51.60;;;32.50;;
68505;SDS011;55509;50.680;17.942;2022-08-24T05:18:32;41.50;;;29.50;;
68505;SDS011;55509;50.680;17.942;2022-08-24T05:21:33;42.50;;;27.10;;
68505;SDS011;55509;50.680;17.942;2022-08-24T05:24:35;39.30;;;27.40;;
68505;SDS011;55509;50.680;17.942;2022-08-24T05:27:36;44.90;;;27.50;;
68505;SDS011;55509;50.680;17.942;2022-08-24T05:30:38;41.80;;;25.60;;
68505;SDS011;55509;50.680;17.942;2022-08-24T05:33:40;37.00;;;25.80;;
68505;SDS011;55509;50.680;17.942;2022-08-24T05:36:42;39.30;;;26.10;;
68505;SDS011;55509;50.680;17.942;2022-08-24T05:39:44;38.00;;;25.80;;
68505;SDS011;55509;50.680;17.942;2022-08-24T05:42:45;37.80;;;25.20;;
68505;SDS011;55509;50.680;17.942;2022-08-24T05:45:48;38.30;;;25.50;;
68505;SDS011;55509;50.680;17.942;2022-08-24T05:48:49;36.80;;;24.40;;
68505;SDS011;55509;50.680;17.942;2022-08-24T05:51:51;35.10;;;24.50;;
68505;SDS011;55509;50.680;17.942;2022-08-24T05:54:54;37.80;;;22.40;;
68505;SDS011;55509;50.680;17.942;2022-08-24T05:57:58;30.40;;;22.70;;
68505;SDS011;55509;50.680;17.942;2022-08-24T06:01:04;31.80;;;22.10;;
68505;SDS011;55509;50.680;17.942;2022-08-24T06:04:08;35.30;;;22.50;;
68505;SDS011;55509;50.680;17.942;2022-08-24T06:07:10;26.90;;;20.10;;
68505;SDS011;55509;50.680;17.942;2022-08-24T06:10:12;28.50;;;21.00;;
68505;SDS011;55509;50.680;17.942;2022-08-24T06:13:15;29.60;;;22.20;;
68505;SDS011;55509;50.680;17.942;2022-08-24T06:16:17;25.10;;;17.60;;
68505;SDS011;55509;50.680;17.942;2022-08-24T06:19:18;22.70;;;18.50;;
68505;SDS011;55509;50.680;17.942;2022-08-24T06:22:20;28.60;;;20.60;;
68505;SDS011;55509;50.680;17.942;2022-08-24T06:25:22;29.00;;;21.50;;
68505;SDS011;55509;50.680;17.942;2022-08-24T06:28:43;35.50;;;24.50;;
68505;SDS011;55509;50.680;17.942;2022-08-24T06:31:45;37.20;;;25.70;;
68505;SDS011;55509;50.680;17.942;2022-08-24T06:34:49;37.40;;;26.10;;
68505;SDS011;55509;50.680;17.942;2022-08-24T06:37:50;29.70;;;22.90;;
68505;SDS011;55509;50.680;17.942;2022-08-24T06:40:52;34.90;;;23.10;;
68505;SDS011;55509;50.680;17.942;2022-08-24T06:43:53;34.50;;;22.80;;
68505;SDS011;55509;50.680;17.942;2022-08-24T06:46:55;31.30;;;19.80;;
68505;SDS011;55509;50.680;17.942;2022-08-24T06:49:57;31.40;;;22.40;;
68505;SDS011;55509;50.680;17.942;2022-08-24T06:53:00;28.90;;;21.40;;
68505;SDS011;55509;50.680;17.942;2022-08-24T06:56:02;29.10;;;20.50;;
68505;SDS011;55509;50.680;17.942;2022-08-24T06:59:04;27.80;;;19.90;;
68505;SDS011;55509;50.680;17.942;2022-08-24T07:02:06;33.20;;;18.70;;
68505;SDS011;55509;50.680;17.942;2022-08-24T07:05:09;23.90;;;17.20;;
68505;SDS011;55509;50.680;17.942;2022-08-24T07:08:10;21.10;;;17.20;;
68505;SDS011;55509;50.680;17.942;2022-08-24T07:11:12;21.50;;;17.80;;
68505;SDS011;55509;50.680;17.942;2022-08-24T07:14:16;23.90;;;17.10;;
68505;SDS011;55509;50.680;17.942;2022-08-24T07:17:18;27.10;;;20.90;;
68505;SDS011;55509;50.680;17.942;2022-08-24T07:20:19;32.60;;;22.90;;
68505;SDS011;55509;50.680;17.942;2022-08-24T07:23:21;24.60;;;21.00;;
68505;SDS011;55509;50.680;17.942;2022-08-24T07:26:24;25.50;;;20.40;;
68505;SDS011;55509;50.680;17.942;2022-08-24T07:29:28;24.50;;;21.80;;
68505;SDS011;55509;50.680;17.942;2022-08-24T07:32:29;33.80;;;28.10;;
68505;SDS011;55509;50.680;17.942;2022-08-24T07:35:31;25.50;;;22.00;;
68505;SDS011;55509;50.680;17.942;2022-08-24T07:38:33;24.30;;;21.20;;
68505;SDS011;55509;50.680;17.942;2022-08-24T07:41:37;24.90;;;21.40;;
68505;SDS011;55509;50.680;17.942;2022-08-24T07:44:41;28.10;;;18.90;;
68505;SDS011;55509;50.680;17.942;2022-08-24T07:47:43;20.40;;;16.40;;
68505;SDS011;55509;50.680;17.942;2022-08-24T07:50:45;19.10;;;16.70;;
68505;SDS011;55509;50.680;17.942;2022-08-24T07:53:47;21.90;;;18.10;;
68505;SDS011;55509;50.680;17.942;2022-08-24T07:56:49;24.20;;;18.90;;
68505;SDS011;55509;50.680;17.942;2022-08-24T07:59:50;26.40;;;19.80;;
68505;SDS011;55509;50.680;17.942;2022-08-24T08:02:52;21.60;;;17.30;;
68505;SDS011;55509;50.680;17.942;2022-08-24T08:05:55;18.50;;;16.10;;
68505;SDS011;55509;50.680;17.942;2022-08-24T08:08:58;20.90;;;16.40;;
68505;SDS011;55509;50.680;17.942;2022-08-24T08:12:00;20.40;;;18.10;;
68505;SDS011;55509;50.680;17.942;2022-08-24T08:15:02;25.70;;;18.40;;
68505;SDS011;55509;50.680;17.942;2022-08-24T08:18:04;21.20;;;17.00;;
68505;SDS011;55509;50.680;17.942;2022-08-24T08:21:06;16.00;;;14.30;;
68505;SDS011;55509;50.680;17.942;2022-08-24T08:24:28;19.70;;;14.50;;
68505;SDS011;55509;50.680;17.942;2022-08-24T08:27:29;19.60;;;13.10;;
68505;SDS011;55509;50.680;17.942;2022-08-24T08:30:31;14.50;;;13.20;;
68505;SDS011;55509;50.680;17.942;2022-08-24T08:33:33;16.60;;;12.60;;
68505;SDS011;55509;50.680;17.942;2022-08-24T08:36:37;15.00;;;13.20;;
68505;SDS011;55509;50.680;17.942;2022-08-24T08:39:40;14.10;;;12.00;;
68505;SDS011;55509;50.680;17.942;2022-08-24T08:43:04;15.50;;;13.10;;
68505;SDS011;55509;50.680;17.942;2022-08-24T08:50:08;18.50;;;11.80;;
68505;SDS011;55509;50.680;17.942;2022-08-24T09:09:54;15.70;;;12.20;;
68505;SDS011;55509;50.680;17.942;2022-08-24T09:13:36;13.60;;;11.20;;
68505;SDS011;55509;50.680;17.942;2022-08-24T09:20:48;13.70;;;12.20;;
68505;SDS011;55509;50.680;17.942;2022-08-24T09:30:47;13.50;;;10.50;;
68505;SDS011;55509;50.680;17.942;2022-08-24T09:47:45;11.70;;;10.10;;
68505;SDS011;55509;50.680;17.942;2022-08-24T10:04:52;15.60;;;9.00;;
68505;SDS011;55509;50.680;17.942;2022-08-24T10:37:14;13.50;;;10.20;;
68505;SDS011;55509;50.680;17.942;2022-08-24T10:47:00;18.70;;;12.60;;
68505;SDS011;55509;50.680;17.942;2022-08-24T10:53:39;13.40;;;11.30;;
68505;SDS011;55509;50.680;17.942;2022-08-24T11:00:20;14.70;;;10.70;;
68505;SDS011;55509;50.680;17.942;2022-08-24T11:03:28;14.20;;;10.60;;
68505;SDS011;55509;50.680;17.942;2022-08-24T11:06:39;17.60;;;12.30;;
68505;SDS011;55509;50.680;17.942;2022-08-24T11:09:51;13.60;;;11.00;;
68505;SDS011;55509;50.680;17.942;2022-08-24T11:13:01;10.60;;;9.50;;
68505;SDS011;55509;50.680;17.942;2022-08-24T11:16:26;10.50;;;9.30;;
68505;SDS011;55509;50.680;17.942;2022-08-24T11:19:32;13.00;;;9.90;;
68505;SDS011;55509;50.680;17.942;2022-08-24T11:22:36;12.10;;;10.00;;
68505;SDS011;55509;50.680;17.942;2022-08-24T11:29:04;17.60;;;12.40;;
68505;SDS011;55509;50.680;17.942;2022-08-24T11:32:05;16.40;;;11.10;;
68505;SDS011;55509;50.680;17.942;2022-08-24T11:38:36;18.90;;;13.70;;
68505;SDS011;55509;50.680;17.942;2022-08-24T11:41:48;15.60;;;12.40;;
68505;SDS011;55509;50.680;17.942;2022-08-24T11:51:50;15.70;;;12.70;;
68505;SDS011;55509;50.680;17.942;2022-08-24T11:55:09;13.80;;;11.30;;
68505;SDS011;55509;50.680;17.942;2022-08-24T11:58:14;14.30;;;13.00;;
68505;SDS011;55509;50.680;17.942;2022-08-24T12:01:31;29.20;;;14.50;;
68505;SDS011;55509;50.680;17.942;2022-08-24T12:04:48;15.90;;;11.90;;
68505;SDS011;55509;50.680;17.942;2022-08-24T12:11:29;17.30;;;11.70;;
68505;SDS011;55509;50.680;17.942;2022-08-24T12:14:43;16.10;;;11.90;;
68505;SDS011;55509;50.680;17.942;2022-08-24T12:18:07;22.50;;;12.00;;
68505;SDS011;55509;50.680;17.942;2022-08-24T12:21:30;21.20;;;11.20;;
68505;SDS011;55509;50.680;17.942;2022-08-24T12:24:45;11.30;;;10.20;;
68505;SDS011;55509;50.680;17.942;2022-08-24T12:27:49;16.00;;;11.00;;
68505;SDS011;55509;50.680;17.942;2022-08-24T12:30:52;12.30;;;10.60;;
68505;SDS011;55509;50.680;17.942;2022-08-24T12:34:00;13.90;;;10.70;;
68505;SDS011;55509;50.680;17.942;2022-08-24T12:37:10;12.00;;;10.30;;
68505;SDS011;55509;50.680;17.942;2022-08-24T12:40:22;18.30;;;11.80;;
68505;SDS011;55509;50.680;17.942;2022-08-24T12:46:57;21.30;;;13.20;;
68505;SDS011;55509;50.680;17.942;2022-08-24T12:50:14;18.00;;;11.20;;
68505;SDS011;55509;50.680;17.942;2022-08-24T13:00:26;17.40;;;12.20;;
68505;SDS011;55509;50.680;17.942;2022-08-24T13:03:35;19.80;;;11.00;;
68505;SDS011;55509;50.680;17.942;2022-08-24T13:06:48;22.50;;;11.40;;
68505;SDS011;55509;50.680;17.942;2022-08-24T13:16:04;16.40;;;10.80;;
68505;SDS011;55509;50.680;17.942;2022-08-24T13:20:13;15.50;;;9.90;;
68505;SDS011;55509;50.680;17.942;2022-08-24T13:22:37;20.30;;;10.90;;
68505;SDS011;55509;50.680;17.942;2022-08-24T13:28:48;17.50;;;9.80;;
68505;SDS011;55509;50.680;17.942;2022-08-24T13:31:54;18.40;;;11.30;;
68505;SDS011;55509;50.680;17.942;2022-08-24T13:35:00;16.00;;;10.10;;
68505;SDS011;55509;50.680;17.942;2022-08-24T13:38:56;17.80;;;9.90;;
68505;SDS011;55509;50.680;17.942;2022-08-24T13:52:53;15.20;;;11.40;;
68505;SDS011;55509;50.680;17.942;2022-08-24T13:55:52;17.50;;;10.90;;
68505;SDS011;55509;50.680;17.942;2022-08-24T13:59:12;13.20;;;9.50;;
68505;SDS011;55509;50.680;17.942;2022-08-24T14:05:31;20.40;;;11.00;;
68505;SDS011;55509;50.680;17.942;2022-08-24T14:08:38;16.20;;;9.10;;
68505;SDS011;55509;50.680;17.942;2022-08-24T14:15:16;18.20;;;10.10;;
68505;SDS011;55509;50.680;17.942;2022-08-24T14:18:27;11.90;;;10.40;;
68505;SDS011;55509;50.680;17.942;2022-08-24T14:21:46;13.70;;;9.80;;
68505;SDS011;55509;50.680;17.942;2022-08-24T14:28:34;18.40;;;10.20;;
68505;SDS011;55509;50.680;17.942;2022-08-24T14:31:36;15.90;;;9.30;;
68505;SDS011;55509;50.680;17.942;2022-08-24T14:34:46;18.20;;;11.60;;
68505;SDS011;55509;50.680;17.942;2022-08-24T14:41:23;15.50;;;10.20;;
68505;SDS011;55509;50.680;17.942;2022-08-24T14:53:58;26.10;;;11.80;;
68505;SDS011;55509;50.680;17.942;2022-08-24T14:57:18;13.90;;;10.90;;
68505;SDS011;55509;50.680;17.942;2022-08-24T15:07:26;22.70;;;11.20;;
68505;SDS011;55509;50.680;17.942;2022-08-24T15:10:54;18.10;;;10.60;;
68505;SDS011;55509;50.680;17.942;2022-08-24T15:14:00;16.30;;;10.80;;
68505;SDS011;55509;50.680;17.942;2022-08-24T15:17:07;14.80;;;11.40;;
68505;SDS011;55509;50.680;17.942;2022-08-24T15:20:17;28.60;;;12.10;;
68505;SDS011;55509;50.680;17.942;2022-08-24T15:23:27;32.70;;;12.20;;
68505;SDS011;55509;50.680;17.942;2022-08-24T15:30:39;14.20;;;11.30;;
68505;SDS011;55509;50.680;17.942;2022-08-24T15:37:02;23.50;;;11.30;;
68505;SDS011;55509;50.680;17.942;2022-08-24T15:40:15;21.80;;;11.50;;
68505;SDS011;55509;50.680;17.942;2022-08-24T15:43:26;23.00;;;12.50;;
68505;SDS011;55509;50.680;17.942;2022-08-24T15:46:35;24.00;;;14.50;;
68505;SDS011;55509;50.680;17.942;2022-08-24T15:49:47;25.70;;;14.30;;
68505;SDS011;55509;50.680;17.942;2022-08-24T15:53:04;22.20;;;12.70;;
68505;SDS011;55509;50.680;17.942;2022-08-24T15:59:31;28.60;;;13.60;;
68505;SDS011;55509;50.680;17.942;2022-08-24T16:02:39;22.60;;;14.30;;
68505;SDS011;55509;50.680;17.942;2022-08-24T16:05:41;19.70;;;11.70;;
68505;SDS011;55509;50.680;17.942;2022-08-24T16:08:53;30.40;;;13.90;;
68505;SDS011;55509;50.680;17.942;2022-08-24T16:12:09;32.00;;;11.60;;
68505;SDS011;55509;50.680;17.942;2022-08-24T16:15:16;29.80;;;10.90;;
68505;SDS011;55509;50.680;17.942;2022-08-24T16:18:19;27.90;;;13.00;;
68505;SDS011;55509;50.680;17.942;2022-08-24T16:24:39;25.50;;;13.10;;
68505;SDS011;55509;50.680;17.942;2022-08-24T16:30:54;27.10;;;12.00;;
68505;SDS011;55509;50.680;17.942;2022-08-24T16:34:14;19.10;;;12.40;;
68505;SDS011;55509;50.680;17.942;2022-08-24T16:37:17;25.80;;;13.00;;
68505;SDS011;55509;50.680;17.942;2022-08-24T16:40:20;29.10;;;11.20;;
68505;SDS011;55509;50.680;17.942;2022-08-24T16:43:22;27.30;;;10.70;;
68505;SDS011;55509;50.680;17.942;2022-08-24T16:46:26;22.50;;;13.20;;
68505;SDS011;55509;50.680;17.942;2022-08-24T16:49:28;28.70;;;12.90;;
68505;SDS011;55509;50.680;17.942;2022-08-24T16:52:30;21.50;;;12.40;;
68505;SDS011;55509;50.680;17.942;2022-08-24T16:55:31;24.00;;;12.30;;
68505;SDS011;55509;50.680;17.942;2022-08-24T16:58:33;20.70;;;12.00;;
68505;SDS011;55509;50.680;17.942;2022-08-24T17:01:35;18.00;;;10.00;;
68505;SDS011;55509;50.680;17.942;2022-08-24T17:04:38;16.90;;;8.80;;
68505;SDS011;55509;50.680;17.942;2022-08-24T17:07:40;21.00;;;12.20;;
68505;SDS011;55509;50.680;17.942;2022-08-24T17:10:43;25.40;;;11.80;;
68505;SDS011;55509;50.680;17.942;2022-08-24T17:13:44;33.70;;;12.70;;
68505;SDS011;55509;50.680;17.942;2022-08-24T17:16:47;21.40;;;13.10;;
68505;SDS011;55509;50.680;17.942;2022-08-24T17:19:49;29.30;;;22.70;;
68505;SDS011;55509;50.680;17.942;2022-08-24T17:22:53;20.90;;;10.90;;
68505;SDS011;55509;50.680;17.942;2022-08-24T17:25:55;22.30;;;12.00;;
68505;SDS011;55509;50.680;17.942;2022-08-24T17:28:57;21.40;;;10.90;;
68505;SDS011;55509;50.680;17.942;2022-08-24T17:32:00;20.60;;;13.60;;
68505;SDS011;55509;50.680;17.942;2022-08-24T17:35:02;20.10;;;13.20;;
68505;SDS011;55509;50.680;17.942;2022-08-24T17:38:06;46.50;;;16.30;;
68505;SDS011;55509;50.680;17.942;2022-08-24T17:41:09;19.30;;;15.20;;
68505;SDS011;55509;50.680;17.942;2022-08-24T17:44:12;24.70;;;14.50;;
68505;SDS011;55509;50.680;17.942;2022-08-24T17:47:18;22.40;;;12.50;;
68505;SDS011;55509;50.680;17.942;2022-08-24T17:50:20;19.10;;;13.60;;
68505;SDS011;55509;50.680;17.942;2022-08-24T17:53:24;29.70;;;14.60;;
68505;SDS011;55509;50.680;17.942;2022-08-24T17:56:26;27.50;;;15.00;;
68505;SDS011;55509;50.680;17.942;2022-08-24T17:59:33;22.50;;;12.90;;
68505;SDS011;55509;50.680;17.942;2022-08-24T18:02:36;17.00;;;11.80;;
68505;SDS011;55509;50.680;17.942;2022-08-24T18:05:38;23.90;;;14.30;;
68505;SDS011;55509;50.680;17.942;2022-08-24T18:08:39;27.40;;;17.00;;
68505;SDS011;55509;50.680;17.942;2022-08-24T18:11:41;24.20;;;16.90;;
68505;SDS011;55509;50.680;17.942;2022-08-24T18:14:45;18.80;;;16.20;;
68505;SDS011;55509;50.680;17.942;2022-08-24T18:17:47;21.80;;;13.00;;
68505;SDS011;55509;50.680;17.942;2022-08-24T18:20:51;24.00;;;14.30;;
68505;SDS011;55509;50.680;17.942;2022-08-24T18:23:53;25.00;;;13.70;;
68505;SDS011;55509;50.680;17.942;2022-08-24T18:26:55;16.20;;;12.70;;
68505;SDS011;55509;50.680;17.942;2022-08-24T18:30:01;17.30;;;12.40;;
68505;SDS011;55509;50.680;17.942;2022-08-24T18:33:05;30.90;;;15.30;;
68505;SDS011;55509;50.680;17.942;2022-08-24T18:36:08;25.50;;;16.60;;
68505;SDS011;55509;50.680;17.942;2022-08-24T18:39:09;21.80;;;15.70;;
68505;SDS011;55509;50.680;17.942;2022-08-24T18:42:11;22.30;;;13.40;;
68505;SDS011;55509;50.680;17.942;2022-08-24T18:45:13;30.40;;;15.60;;
68505;SDS011;55509;50.680;17.942;2022-08-24T18:48:15;25.00;;;14.20;;
68505;SDS011;55509;50.680;17.942;2022-08-24T18:51:17;23.70;;;13.50;;
68505;SDS011;55509;50.680;17.942;2022-08-24T18:54:21;21.80;;;13.80;;
68505;SDS011;55509;50.680;17.942;2022-08-24T18:57:25;23.30;;;15.40;;
68505;SDS011;55509;50.680;17.942;2022-08-24T19:00:30;20.00;;;15.60;;
68505;SDS011;55509;50.680;17.942;2022-08-24T19:03:31;21.80;;;15.10;;
68505;SDS011;55509;50.680;17.942;2022-08-24T19:06:33;29.00;;;13.70;;
68505;SDS011;55509;50.680;17.942;2022-08-24T19:09:35;20.90;;;14.80;;
68505;SDS011;55509;50.680;17.942;2022-08-24T19:12:40;24.60;;;15.30;;
68505;SDS011;55509;50.680;17.942;2022-08-24T19:15:44;22.40;;;14.40;;
68505;SDS011;55509;50.680;17.942;2022-08-24T19:18:47;32.40;;;15.90;;
68505;SDS011;55509;50.680;17.942;2022-08-24T19:21:50;23.40;;;15.10;;
68505;SDS011;55509;50.680;17.942;2022-08-24T19:24:52;29.40;;;17.20;;
68505;SDS011;55509;50.680;17.942;2022-08-24T19:27:54;25.30;;;18.30;;
68505;SDS011;55509;50.680;17.942;2022-08-24T19:30:57;44.50;;;22.80;;
68505;SDS011;55509;50.680;17.942;2022-08-24T19:34:01;28.60;;;17.10;;
68505;SDS011;55509;50.680;17.942;2022-08-24T19:37:03;35.90;;;17.80;;
68505;SDS011;55509;50.680;17.942;2022-08-24T19:40:05;25.40;;;17.30;;
68505;SDS011;55509;50.680;17.942;2022-08-24T19:43:07;19.90;;;17.80;;
68505;SDS011;55509;50.680;17.942;2022-08-24T19:46:09;24.30;;;18.60;;
68505;SDS011;55509;50.680;17.942;2022-08-24T19:49:11;24.20;;;19.00;;
68505;SDS011;55509;50.680;17.942;2022-08-24T19:52:13;33.40;;;21.30;;
68505;SDS011;55509;50.680;17.942;2022-08-24T19:55:15;25.60;;;20.30;;
68505;SDS011;55509;50.680;17.942;2022-08-24T19:58:20;29.60;;;19.60;;
68505;SDS011;55509;50.680;17.942;2022-08-24T20:01:26;40.60;;;18.20;;
68505;SDS011;55509;50.680;17.942;2022-08-24T20:04:34;21.80;;;18.10;;
68505;SDS011;55509;50.680;17.942;2022-08-24T20:07:36;20.30;;;17.10;;
68505;SDS011;55509;50.680;17.942;2022-08-24T20:10:38;20.50;;;16.40;;
68505;SDS011;55509;50.680;17.942;2022-08-24T20:13:41;35.50;;;19.20;;
68505;SDS011;55509;50.680;17.942;2022-08-24T20:16:43;20.40;;;18.30;;
68505;SDS011;55509;50.680;17.942;2022-08-24T20:19:45;28.20;;;18.60;;
68505;SDS011;55509;50.680;17.942;2022-08-24T20:22:46;25.00;;;18.80;;
68505;SDS011;55509;50.680;17.942;2022-08-24T20:25:48;28.10;;;19.20;;
68505;SDS011;55509;50.680;17.942;2022-08-24T20:28:51;25.30;;;19.70;;
68505;SDS011;55509;50.680;17.942;2022-08-24T20:31:54;27.80;;;19.00;;
68505;SDS011;55509;50.680;17.942;2022-08-24T20:35:01;34.80;;;18.60;;
68505;SDS011;55509;50.680;17.942;2022-08-24T20:38:03;21.80;;;17.60;;
68505;SDS011;55509;50.680;17.942;2022-08-24T20:41:04;21.00;;;17.10;;
68505;SDS011;55509;50.680;17.942;2022-08-24T20:44:06;23.40;;;18.40;;
68505;SDS011;55509;50.680;17.942;2022-08-24T20:47:10;22.00;;;16.80;;
68505;SDS011;55509;50.680;17.942;2022-08-24T20:50:14;29.60;;;19.00;;
68505;SDS011;55509;50.680;17.942;2022-08-24T20:53:17;24.10;;;18.20;;
68505;SDS011;55509;50.680;17.942;2022-08-24T20:56:34;23.30;;;18.90;;
68505;SDS011;55509;50.680;17.942;2022-08-24T20:59:38;21.70;;;19.40;;
68505;SDS011;55509;50.680;17.942;2022-08-24T21:02:39;38.20;;;24.60;;
68505;SDS011;55509;50.680;17.942;2022-08-24T21:05:41;27.40;;;19.50;;